Latest Weather Observations for St George

IDQ60801

Issued at 12:32 pm EST Saturday 20 December 2014 (issued every 30 minutes, with the page automatically refreshed every 10 minutes)

About weather observations | Map of weather stations | Latest weather observations for QLD | Other Formats
Station Details ID: 043109 Name: ST GEORGE AIRPORT Lat: -28.05 Lon: 148.59 Height: 198.5 m
Data from the previous 72 hours. | See also: Recent months at St George
Date/Time
EST
Temp
°C
App
Temp
°C
Dew
Point
Rel
Hum
%
Delta-T
°C
Wind Press
QNH
hPa
Press
MSL
hPa
Rain
since 9 am
mm
Dir
 
Spd
km/h
Gust
km/h
Spd
kts
Gust
kts
20/12:30pm 34.2 29.1 -1.7 10 17.3 SW 15 24 8 13 1012.6 - 0.0
20/12:00pm 33.3 29.8 -1.1 11 16.6 SW 7 17 4 9 1013.3 1012.1 0.0
20/11:30am 32.7 28.2 -0.4 12 16.1 SW 13 22 7 12 1013.7 - 0.0
20/11:00am 32.4 28.6 -0.6 12 16.0 WSW 9 17 5 9 1014.1 - 0.0
20/10:30am 32.0 27.8 -0.9 12 15.8 W 11 20 6 11 1014.3 - 0.0
20/10:00am 31.1 27.8 -1.6 12 15.4 E 6 13 3 7 1014.5 - 0.0
20/09:30am 30.8 28.1 0.2 14 14.9 NNW 4 7 2 4 1014.6 - 0.0
20/09:00am 29.2 25.5 -0.1 15 14.0 NNE 9 17 5 9 1014.8 1013.6 0.0
20/08:30am 28.0 24.0 0.7 17 13.1 N 11 17 6 9 1014.8 - 0.0
20/08:00am 26.8 23.6 -0.3 17 12.7 NNE 6 9 3 5 1014.6 - 0.0
20/07:30am 25.1 21.8 -0.1 19 11.7 NNE 7 11 4 6 1014.5 - 0.0
20/07:00am 24.4 21.7 0.0 20 11.3 ESE 4 7 2 4 1014.3 - 0.0
20/06:30am 22.4 20.6 1.4 25 9.8 CALM 0 0 0 0 1014.0 - 0.0
20/06:00am 18.5 17.5 5.4 42 6.4 CALM 0 0 0 0 1013.6 1012.4 0.0
20/05:30am 15.6 14.5 4.9 49 5.1 CALM 0 0 0 0 1013.3 - 0.0
20/05:00am 15.7 14.5 4.4 47 5.3 CALM 0 0 0 0 1013.1 - 0.0
20/04:30am 15.6 14.4 4.6 48 5.2 CALM 0 0 0 0 1012.6 - 0.0
20/04:00am 16.1 15.0 5.1 48 5.3 CALM 0 0 0 0 1012.3 - 0.0
20/03:30am 16.6 15.3 4.0 43 5.9 CALM 0 0 0 0 1012.3 - 0.0
20/03:00am 17.4 15.7 4.0 41 6.4 SE 2 6 1 3 1012.1 1010.8 0.0
20/02:30am 17.8 15.5 2.9 37 6.9 SE 4 6 2 3 1012.1 - 0.0
20/02:00am 18.6 15.9 2.4 34 7.5 SE 6 7 3 4 1012.2 - 0.0
20/01:30am 19.5 16.8 2.4 32 8.0 ESE 6 7 3 4 1012.3 - 0.0
20/01:00am 20.6 17.8 2.0 29 8.7 SE 6 6 3 3 1012.5 - 0.0
20/12:30am 22.5 19.6 1.5 25 9.8 SE 6 7 3 4 1012.7 - 0.0
20/12:00am 23.6 20.5 1.3 23 10.5 SE 7 9 4 5 1012.9 1011.7 0.0
 
Date/Time
EST
Temp
°C
App
Temp
°C
Dew
Point
Rel
Hum
%
Delta-T
°C
Wind Press
QNH
hPa
Press
MSL
hPa
Rain
since 9 am
mm
Dir
 
Spd
km/h
Gust
km/h
Spd
kts
Gust
kts
19/11:30pm 23.7 19.8 1.4 23 10.5 SSE 11 13 6 7 1013.0 - 0.0
19/11:00pm 24.9 21.3 0.4 20 11.5 SE 9 11 5 6 1013.2 - 0.0
19/10:30pm 25.1 21.2 1.3 21 11.3 SSE 11 13 6 7 1013.3 - 0.0
19/10:00pm 25.2 21.4 2.0 22 11.2 S 11 13 6 7 1013.2 - 0.0
19/09:30pm 25.8 22.1 2.5 22 11.4 S 11 13 6 7 1012.9 - 0.0
19/09:00pm 26.2 23.0 2.8 22 11.5 S 9 11 5 6 1012.6 1011.3 0.0
19/08:30pm 27.3 23.6 2.4 20 12.3 S 11 11 6 6 1012.3 - 0.0
19/08:00pm 28.0 24.3 2.2 19 12.7 S 11 13 6 7 1012.1 - 0.0
19/07:30pm 29.7 25.8 1.2 16 14.0 SSW 11 15 6 8 1011.8 - 0.0
19/07:00pm 31.2 26.5 0.6 14 15.0 SSW 15 22 8 12 1011.5 - 0.0
19/06:30pm 32.6 26.9 0.6 13 15.9 SSW 20 32 11 17 1011.2 - 0.0
19/06:00pm 33.5 27.9 1.3 13 16.2 SSW 20 30 11 16 1010.7 1009.5 0.0
19/05:30pm 34.1 28.0 0.7 12 16.7 W 22 30 12 16 1010.4 - 0.0
19/05:00pm 34.5 27.3 1.0 12 16.9 SW 28 39 15 21 1010.3 - 0.0
19/04:30pm 34.7 27.8 -0.1 11 17.3 SSW 26 37 14 20 1010.2 - 0.0
19/04:00pm 34.7 27.8 -0.1 11 17.3 SW 26 39 14 21 1010.3 - 0.0
19/03:30pm 35.3 28.4 0.4 11 17.5 SSW 26 39 14 21 1010.3 - 0.0
19/03:00pm 34.8 28.1 1.2 12 17.1 WSW 26 39 14 21 1010.4 1009.2 0.0
19/02:47pm 35.1 26.7 1.5 12 17.2 W 35 54 19 29 1010.6 - 0.0
19/02:30pm 35.4 28.2 2.8 13 17.0 W 30 39 16 21 1010.7 - 0.0
19/02:00pm 34.4 28.0 0.9 12 16.9 SW 24 39 13 21 1011.0 - 0.0
19/01:30pm 35.8 29.8 3.1 13 17.2 SW 24 39 13 21 1011.4 - 0.0
19/01:00pm 33.8 29.4 2.6 14 16.1 SSW 15 30 8 16 1011.6 - 0.0
19/12:30pm 34.5 28.5 3.1 14 16.4 WSW 24 33 13 18 1011.8 - 0.0
19/12:00pm 33.4 28.9 4.2 16 15.4 W 17 28 9 15 1012.2 1010.9 0.0
19/11:30am 33.1 29.6 7.1 20 14.4 WSW 15 30 8 16 1012.6 - 0.0
19/11:00am 32.8 28.6 7.6 21 14.0 SSW 19 28 10 15 1012.7 - 0.0
19/10:30am 31.9 27.7 7.5 22 13.5 WSW 19 32 10 17 1012.8 - 0.0
19/10:00am 30.4 27.2 11.4 31 11.1 WSW 19 24 10 13 1013.0 - 0.0
19/09:30am 29.5 26.5 12.0 34 10.3 SW 19 28 10 15 1013.1 - 0.0
19/09:00am 28.6 26.9 15.8 45 7.9 WSW 19 24 10 13 1013.2 1012.0 0.0
19/08:30am 27.4 25.8 16.4 51 6.9 WSW 20 28 11 15 1013.2 - 0.0
19/08:00am 26.4 25.3 17.2 57 5.8 W 19 26 10 14 1013.2 - 0.0
19/07:30am 24.8 23.2 17.5 64 4.6 W 22 30 12 16 1013.2 - 0.0
19/07:00am 23.2 21.9 18.1 73 3.2 W 22 32 12 17 1013.1 - 0.0
19/06:30am 21.2 21.5 17.8 81 2.1 WNW 13 20 7 11 1013.0 - 0.0
19/06:00am 19.9 19.7 17.5 86 1.5 NNW 15 19 8 10 1012.6 1011.3 0.0
19/05:30am 19.2 19.6 17.2 88 1.2 NNW 11 13 6 7 1012.4 - 0.0
19/05:00am 19.0 19.7 17.1 89 1.2 NNW 9 13 5 7 1012.2 - 0.0
19/04:30am 19.2 19.6 17.2 88 1.2 NNW 11 15 6 8 1012.2 - 0.0
19/04:00am 19.4 19.5 17.4 88 1.2 NNW 13 17 7 9 1012.1 - 0.0
19/03:30am 19.6 19.7 17.4 87 1.4 NNW 13 17 7 9 1011.7 - 0.0
19/03:00am 19.7 20.1 17.3 86 1.5 N 11 15 6 8 1011.7 1010.4 0.0
19/02:30am 19.9 20.3 17.3 85 1.6 N 11 17 6 9 1011.7 - 0.0
19/02:00am 20.3 20.4 17.5 84 1.7 N 13 17 7 9 1012.0 - 0.0
19/01:30am 20.6 20.3 17.4 82 2.0 N 15 20 8 11 1012.3 - 0.0
19/01:00am 20.8 20.4 17.2 80 2.2 N 15 22 8 12 1012.4 - 0.0
19/12:30am 21.2 19.8 17.0 77 2.6 N 20 32 11 17 1012.7 - 0.0
19/12:00am 21.5 20.1 16.9 75 2.8 N 20 37 11 20 1012.9 1011.7 0.0
 
Date/Time
EST
Temp
°C
App
Temp
°C
Dew
Point
Rel
Hum
%
Delta-T
°C
Wind Press
QNH
hPa
Press
MSL
hPa
Rain
since 9 am
mm
Dir
 
Spd
km/h
Gust
km/h
Spd
kts
Gust
kts
18/11:30pm 21.9 20.0 16.8 73 3.1 N 22 30 12 16 1013.0 - 0.0
18/11:00pm 22.1 21.3 17.0 73 3.1 N 17 26 9 14 1013.3 - 0.0
18/10:30pm 22.4 20.6 16.9 71 3.4 N 22 32 12 17 1013.4 - 0.0
18/10:00pm 22.9 21.6 16.7 68 3.8 N 19 28 10 15 1012.9 - 0.0
18/09:30pm 23.4 21.5 15.7 62 4.7 N 20 28 11 15 1012.6 - 0.0
18/09:00pm 23.7 21.5 14.9 57 5.3 N 20 28 11 15 1012.5 1011.2 0.0
18/08:30pm 23.7 22.0 14.7 57 5.4 N 17 20 9 11 1012.2 - 0.0
18/08:00pm 23.6 23.7 16.4 64 4.4 N 11 17 6 9 1012.1 - 0.0
18/07:30pm 23.9 23.5 16.2 62 4.7 N 13 19 7 10 1011.6 - 0.0
18/07:00pm 24.5 23.4 15.4 57 5.5 N 15 20 8 11 1010.7 - 0.0
18/06:30pm 24.8 24.1 15.4 56 5.7 N 13 20 7 11 1010.7 - 0.0
18/06:00pm 25.2 25.3 15.5 55 5.9 N 9 11 5 6 1010.4 1009.2 0.0
18/05:30pm 26.7 25.6 13.1 43 8.0 WNW 11 17 6 9 1010.7 - 0.0
18/05:00pm 26.2 25.0 14.0 47 7.3 W 13 19 7 10 1010.0 - 0.0
18/04:30pm 28.1 24.8 10.8 34 9.9 WSW 19 28 10 15 1009.5 - 0.0
18/04:00pm 28.7 23.0 9.9 31 10.6 WSW 30 39 16 21 1009.3 - 0.0
18/03:30pm 28.5 22.1 10.7 33 10.2 WSW 35 48 19 26 1009.3 - 0.0
18/03:03pm 29.4 23.0 9.5 29 11.2 WSW 33 52 18 28 1009.2 - 0.0
18/03:00pm 29.9 23.6 8.9 27 11.8 WSW 32 48 17 26 1009.1 1007.9 0.0
18/02:30pm 31.7 24.2 8.0 23 13.2 WSW 37 59 20 32 1008.9 - 0.0
18/02:00pm 31.5 23.4 7.2 22 13.3 WSW 39 57 21 31 1008.3 - 0.0
18/01:30pm 32.6 25.7 8.8 23 13.5 WSW 35 54 19 29 1008.0 - 0.0
18/01:29pm 32.4 26.0 9.2 24 13.2 WSW 33 54 18 29 1008.0 - 0.0
18/01:00pm 32.7 27.5 10.1 25 13.1 SW 28 33 15 18 1008.4 - 0.0
18/12:30pm 31.0 28.1 9.8 27 12.1 W 15 20 8 11 1008.7 - 0.0
18/12:00pm 30.9 25.6 11.3 30 11.5 WSW 30 39 16 21 1008.5 1007.3 0.0
18/11:30am 30.9 25.6 13.2 34 10.7 WSW 33 50 18 27 1008.7 - 0.0
18/11:00am 31.1 23.4 15.5 39 9.7 WSW 50 72 27 39 1008.5 - 0.0
18/10:45am 32.1 23.8 13.8 33 11.2 WSW 50 70 27 38 1008.2 - 0.0
18/10:44am 32.3 23.1 13.5 32 11.4 WSW 54 70 29 38 1008.2 - 0.0
18/10:39am 34.8 30.2 13.6 28 13.0 W 30 50 16 27 1007.9 - 0.0
18/10:30am 35.2 31.3 14.5 29 12.9 W 28 35 15 19 1007.6 - 0.0
18/10:00am 35.1 32.9 14.9 29 12.7 NNW 20 32 11 17 1006.8 - 0.0
18/09:30am 34.0 31.1 15.0 32 11.9 NNW 24 32 13 17 1006.6 - 0.0
18/09:00am 32.8 30.0 15.3 34 11.0 NNW 24 35 13 19 1007.0 1005.7 0.0
18/08:30am 31.1 28.7 15.5 39 9.7 NNW 22 30 12 16 1007.4 - 0.0
18/08:00am 30.3 27.7 16.0 42 9.0 NNW 24 35 13 19 1007.6 - 0.0
18/07:30am 29.8 27.6 15.9 43 8.7 NNW 22 37 12 20 1007.5 - 0.0
18/07:00am 28.1 26.6 16.7 50 7.2 N 20 32 11 17 1007.7 - 0.0
18/06:30am 26.6 24.4 16.8 55 6.1 N 24 35 13 19 1007.3 - 0.0
18/06:00am 25.9 24.5 17.0 58 5.6 N 20 30 11 16 1007.2 1005.9 0.0
18/05:30am 25.3 23.9 17.0 60 5.2 N 20 30 11 16 1006.9 - 0.0
18/05:00am 25.3 24.1 17.0 60 5.2 N 19 28 10 15 1006.6 - 0.0
18/04:30am 25.6 24.8 17.0 59 5.4 N 17 20 9 11 1006.4 - 0.0
18/04:00am 25.9 24.6 16.7 57 5.7 N 19 28 10 15 1006.3 - 0.0
18/03:30am 26.3 25.4 16.8 56 5.9 N 17 30 9 16 1006.1 - 0.0
18/03:00am 26.4 25.1 17.2 57 5.8 N 20 30 11 16 1005.7 1004.5 0.0
18/02:30am 26.5 25.4 17.3 57 5.8 N 19 28 10 15 1005.9 - 0.0
18/02:00am 26.7 25.4 17.2 56 6.0 N 20 33 11 18 1005.7 - 0.0
18/01:30am 27.1 24.8 16.7 53 6.5 N 24 37 13 20 1006.1 - 0.0
18/01:00am 27.7 25.3 16.3 49 7.1 N 24 35 13 19 1006.6 - 0.0
18/12:30am 28.6 25.3 14.1 41 8.8 N 24 33 13 18 1006.6 - 0.0
18/12:00am 29.6 24.9 12.1 34 10.3 N 28 39 15 21 1006.5 1005.2 0.0
 
Date/Time
EST
Temp
°C
App
Temp
°C
Dew
Point
Rel
Hum
%
Delta-T
°C
Wind Press
QNH
hPa
Press
MSL
hPa
Rain
since 9 am
mm
Dir
 
Spd
km/h
Gust
km/h
Spd
kts
Gust
kts
17/11:55pm 30.0 25.2 11.5 32 10.8 N 28 33 15 18 1006.3 - 0.0
17/11:30pm 29.9 28.2 9.9 29 11.4 N 9 11 5 6 1005.2 - 0.0
17/11:00pm 31.1 28.5 9.3 26 12.4 N 13 15 7 8 1005.9 - 0.0
17/10:30pm 30.6 29.2 8.9 26 12.2 NNW 6 9 3 5 1006.2 - 0.0
17/10:00pm 29.8 28.3 9.3 28 11.5 NNW 7 11 4 6 1006.1 - 0.0
17/09:30pm 31.8 30.3 9.3 25 12.8 NNE 7 13 4 7 1006.1 - 0.0
17/09:00pm 32.1 30.2 7.7 22 13.6 NNE 7 9 4 5 1005.6 1004.4 0.0
17/08:30pm 33.6 30.6 6.0 18 15.0 N 11 13 6 7 1005.1 - 0.0
17/08:00pm 33.3 31.2 5.8 18 14.9 SE 6 11 3 6 1004.8 - 0.0
17/07:30pm 35.3 30.5 5.7 16 16.2 S 20 28 11 15 1004.3 - 0.0
17/07:00pm 36.2 33.5 5.5 15 16.8 W 9 13 5 7 1004.0 - 0.0
17/06:30pm 37.3 34.9 5.3 14 17.6 W 7 15 4 8 1003.4 - 0.0
17/06:00pm 38.1 32.0 4.9 13 18.2 SSE 26 35 14 19 1002.2 1000.9 0.0
17/05:30pm 40.0 35.8 4.0 11 19.6 S 15 20 8 11 1001.7 - 0.0
17/05:00pm 39.2 34.9 3.4 11 19.3 SW 15 24 8 13 1001.7 - 0.0
17/04:30pm 40.7 35.3 4.5 11 19.9 SW 22 30 12 16 1001.6 - 0.0
17/04:00pm 41.1 35.5 3.4 10 20.5 WSW 22 33 12 18 1001.6 - 0.0
17/03:30pm 40.2 36.6 2.8 10 20.0 SW 11 17 6 9 1001.8 - 0.0
17/03:00pm 40.3 35.9 2.8 10 20.2 W 15 22 8 12 1002.6 1001.3 0.0
17/02:30pm 39.4 36.3 3.5 11 19.4 SSW 9 24 5 13 1003.2 - 0.0
17/02:00pm 38.5 34.7 4.1 12 18.6 S 13 19 7 10 1003.7 - 0.0
17/01:30pm 38.7 35.3 4.2 12 18.7 SSE 11 20 6 11 1003.9 - 0.0
17/01:00pm 38.9 34.6 3.1 11 19.1 SSW 15 20 8 11 1004.1 - 0.0

Other Formats:

Comma delimited format used in spreadsheet applications
http://www.bom.gov.au/fwo/IDQ60801/IDQ60801.94517.axf

JavaScript Object Notation format (JSON) in row-major order
http://www.bom.gov.au/fwo/IDQ60801/IDQ60801.94517.json